sensor_id;sensor_type;location;lat;lon;timestamp;P1;durP1;ratioP1;P2;durP2;ratioP2
15393;SDS011;7795;47.986;11.868;2023-11-19T00:00:15;1.47;;;1.37;;
15393;SDS011;7795;47.986;11.868;2023-11-19T00:02:41;1.70;;;1.60;;
15393;SDS011;7795;47.986;11.868;2023-11-19T00:05:09;1.50;;;1.40;;
15393;SDS011;7795;47.986;11.868;2023-11-19T00:07:36;1.60;;;1.50;;
15393;SDS011;7795;47.986;11.868;2023-11-19T00:10:06;1.70;;;1.60;;
15393;SDS011;7795;47.986;11.868;2023-11-19T00:12:35;1.50;;;1.40;;
15393;SDS011;7795;47.986;11.868;2023-11-19T00:15:02;1.40;;;1.30;;
15393;SDS011;7795;47.986;11.868;2023-11-19T00:17:28;1.50;;;1.40;;
15393;SDS011;7795;47.986;11.868;2023-11-19T00:19:54;1.97;;;1.77;;
15393;SDS011;7795;47.986;11.868;2023-11-19T00:22:21;1.40;;;1.30;;
15393;SDS011;7795;47.986;11.868;2023-11-19T00:24:47;1.43;;;1.40;;
15393;SDS011;7795;47.986;11.868;2023-11-19T00:27:13;1.30;;;1.20;;
15393;SDS011;7795;47.986;11.868;2023-11-19T00:29:38;1.70;;;1.60;;
15393;SDS011;7795;47.986;11.868;2023-11-19T00:32:05;1.40;;;1.30;;
15393;SDS011;7795;47.986;11.868;2023-11-19T00:34:32;1.70;;;1.60;;
15393;SDS011;7795;47.986;11.868;2023-11-19T00:36:58;1.60;;;1.50;;
15393;SDS011;7795;47.986;11.868;2023-11-19T00:39:25;1.40;;;1.30;;
15393;SDS011;7795;47.986;11.868;2023-11-19T00:41:51;1.67;;;1.57;;
15393;SDS011;7795;47.986;11.868;2023-11-19T00:44:17;1.77;;;1.67;;
15393;SDS011;7795;47.986;11.868;2023-11-19T00:46:43;1.77;;;1.67;;
15393;SDS011;7795;47.986;11.868;2023-11-19T00:49:08;1.53;;;1.43;;
15393;SDS011;7795;47.986;11.868;2023-11-19T00:51:36;1.90;;;1.80;;
15393;SDS011;7795;47.986;11.868;2023-11-19T00:54:03;2.97;;;2.70;;
15393;SDS011;7795;47.986;11.868;2023-11-19T00:56:30;2.00;;;1.90;;
15393;SDS011;7795;47.986;11.868;2023-11-19T00:58:56;2.10;;;2.00;;
15393;SDS011;7795;47.986;11.868;2023-11-19T01:01:22;1.90;;;1.80;;
15393;SDS011;7795;47.986;11.868;2023-11-19T01:03:48;1.60;;;1.50;;
15393;SDS011;7795;47.986;11.868;2023-11-19T01:06:13;1.73;;;1.63;;
15393;SDS011;7795;47.986;11.868;2023-11-19T01:08:42;2.57;;;2.37;;
15393;SDS011;7795;47.986;11.868;2023-11-19T01:11:07;2.17;;;1.97;;
15393;SDS011;7795;47.986;11.868;2023-11-19T01:13:34;1.80;;;1.70;;
15393;SDS011;7795;47.986;11.868;2023-11-19T01:16:00;1.70;;;1.60;;
15393;SDS011;7795;47.986;11.868;2023-11-19T01:18:27;2.10;;;2.00;;
15393;SDS011;7795;47.986;11.868;2023-11-19T01:20:53;2.40;;;2.20;;
15393;SDS011;7795;47.986;11.868;2023-11-19T01:23:18;1.53;;;1.43;;
15393;SDS011;7795;47.986;11.868;2023-11-19T01:25:44;1.80;;;1.70;;
15393;SDS011;7795;47.986;11.868;2023-11-19T01:28:10;1.73;;;1.50;;
15393;SDS011;7795;47.986;11.868;2023-11-19T01:30:37;2.17;;;1.97;;
15393;SDS011;7795;47.986;11.868;2023-11-19T01:33:02;1.50;;;1.40;;
15393;SDS011;7795;47.986;11.868;2023-11-19T01:35:28;1.60;;;1.50;;
15393;SDS011;7795;47.986;11.868;2023-11-19T01:37:54;1.90;;;1.80;;
15393;SDS011;7795;47.986;11.868;2023-11-19T01:40:20;2.00;;;1.90;;
15393;SDS011;7795;47.986;11.868;2023-11-19T01:42:46;2.40;;;2.20;;
15393;SDS011;7795;47.986;11.868;2023-11-19T01:45:16;1.80;;;1.70;;
15393;SDS011;7795;47.986;11.868;2023-11-19T01:47:50;1.93;;;1.83;;
15393;SDS011;7795;47.986;11.868;2023-11-19T01:50:16;1.90;;;1.80;;
15393;SDS011;7795;47.986;11.868;2023-11-19T01:52:42;1.90;;;1.80;;
15393;SDS011;7795;47.986;11.868;2023-11-19T01:55:08;1.97;;;1.80;;
15393;SDS011;7795;47.986;11.868;2023-11-19T01:57:35;1.80;;;1.70;;
15393;SDS011;7795;47.986;11.868;2023-11-19T02:00:03;1.70;;;1.60;;
15393;SDS011;7795;47.986;11.868;2023-11-19T02:02:31;2.10;;;2.00;;
15393;SDS011;7795;47.986;11.868;2023-11-19T02:04:58;2.20;;;2.10;;
15393;SDS011;7795;47.986;11.868;2023-11-19T02:07:25;1.90;;;1.80;;
15393;SDS011;7795;47.986;11.868;2023-11-19T02:09:51;2.27;;;2.10;;
15393;SDS011;7795;47.986;11.868;2023-11-19T02:12:16;2.00;;;1.90;;
15393;SDS011;7795;47.986;11.868;2023-11-19T02:14:42;1.93;;;1.83;;
15393;SDS011;7795;47.986;11.868;2023-11-19T02:17:08;1.70;;;1.60;;
15393;SDS011;7795;47.986;11.868;2023-11-19T02:19:51;1.80;;;1.70;;
15393;SDS011;7795;47.986;11.868;2023-11-19T02:22:18;2.00;;;1.90;;
15393;SDS011;7795;47.986;11.868;2023-11-19T02:24:44;2.03;;;1.93;;
15393;SDS011;7795;47.986;11.868;2023-11-19T02:27:14;2.10;;;2.00;;
15393;SDS011;7795;47.986;11.868;2023-11-19T02:29:47;1.60;;;1.50;;
15393;SDS011;7795;47.986;11.868;2023-11-19T02:32:14;2.07;;;1.97;;
15393;SDS011;7795;47.986;11.868;2023-11-19T02:34:40;1.97;;;1.87;;
15393;SDS011;7795;47.986;11.868;2023-11-19T02:37:06;2.10;;;2.00;;
15393;SDS011;7795;47.986;11.868;2023-11-19T02:39:33;1.77;;;1.67;;
15393;SDS011;7795;47.986;11.868;2023-11-19T02:41:58;1.80;;;1.70;;
15393;SDS011;7795;47.986;11.868;2023-11-19T02:44:25;1.90;;;1.80;;
15393;SDS011;7795;47.986;11.868;2023-11-19T02:46:54;2.10;;;2.00;;
15393;SDS011;7795;47.986;11.868;2023-11-19T02:49:21;1.80;;;1.70;;
15393;SDS011;7795;47.986;11.868;2023-11-19T02:51:47;2.00;;;1.90;;
15393;SDS011;7795;47.986;11.868;2023-11-19T02:54:13;1.63;;;1.53;;
15393;SDS011;7795;47.986;11.868;2023-11-19T02:56:42;1.83;;;1.73;;
15393;SDS011;7795;47.986;11.868;2023-11-19T02:59:07;2.30;;;2.10;;
15393;SDS011;7795;47.986;11.868;2023-11-19T03:01:43;1.90;;;1.80;;
15393;SDS011;7795;47.986;11.868;2023-11-19T03:04:16;1.83;;;1.73;;
15393;SDS011;7795;47.986;11.868;2023-11-19T03:06:45;2.37;;;1.53;;
15393;SDS011;7795;47.986;11.868;2023-11-19T03:09:11;1.80;;;1.70;;
15393;SDS011;7795;47.986;11.868;2023-11-19T03:11:37;1.83;;;1.70;;
15393;SDS011;7795;47.986;11.868;2023-11-19T03:14:03;1.60;;;1.50;;
15393;SDS011;7795;47.986;11.868;2023-11-19T03:16:29;1.70;;;1.60;;
15393;SDS011;7795;47.986;11.868;2023-11-19T03:18:55;1.57;;;1.47;;
15393;SDS011;7795;47.986;11.868;2023-11-19T03:21:28;1.50;;;1.40;;
15393;SDS011;7795;47.986;11.868;2023-11-19T03:23:53;1.60;;;1.50;;
15393;SDS011;7795;47.986;11.868;2023-11-19T03:26:19;3.30;;;1.77;;
15393;SDS011;7795;47.986;11.868;2023-11-19T03:28:45;1.70;;;1.60;;
15393;SDS011;7795;47.986;11.868;2023-11-19T03:31:11;1.80;;;1.70;;
15393;SDS011;7795;47.986;11.868;2023-11-19T03:33:36;1.50;;;1.40;;
15393;SDS011;7795;47.986;11.868;2023-11-19T03:36:02;1.80;;;1.70;;
15393;SDS011;7795;47.986;11.868;2023-11-19T03:38:30;1.70;;;1.60;;
15393;SDS011;7795;47.986;11.868;2023-11-19T03:40:55;2.17;;;1.97;;
15393;SDS011;7795;47.986;11.868;2023-11-19T03:43:21;1.67;;;1.57;;
15393;SDS011;7795;47.986;11.868;2023-11-19T03:45:47;1.40;;;1.30;;
15393;SDS011;7795;47.986;11.868;2023-11-19T03:48:13;1.77;;;1.67;;
15393;SDS011;7795;47.986;11.868;2023-11-19T03:50:41;1.77;;;1.67;;
15393;SDS011;7795;47.986;11.868;2023-11-19T03:53:06;1.83;;;1.73;;
15393;SDS011;7795;47.986;11.868;2023-11-19T03:55:34;1.70;;;1.60;;
15393;SDS011;7795;47.986;11.868;2023-11-19T03:57:59;2.20;;;2.03;;
15393;SDS011;7795;47.986;11.868;2023-11-19T04:00:25;1.77;;;1.67;;
15393;SDS011;7795;47.986;11.868;2023-11-19T04:02:52;1.80;;;1.70;;
15393;SDS011;7795;47.986;11.868;2023-11-19T04:05:18;2.10;;;1.90;;
15393;SDS011;7795;47.986;11.868;2023-11-19T04:07:44;2.23;;;2.03;;
15393;SDS011;7795;47.986;11.868;2023-11-19T04:10:09;2.20;;;2.00;;
15393;SDS011;7795;47.986;11.868;2023-11-19T04:12:36;1.60;;;1.50;;
15393;SDS011;7795;47.986;11.868;2023-11-19T04:15:03;1.70;;;1.60;;
15393;SDS011;7795;47.986;11.868;2023-11-19T04:17:29;1.80;;;1.70;;
15393;SDS011;7795;47.986;11.868;2023-11-19T04:19:55;2.27;;;1.93;;
15393;SDS011;7795;47.986;11.868;2023-11-19T04:22:21;2.37;;;2.17;;
15393;SDS011;7795;47.986;11.868;2023-11-19T04:24:46;2.00;;;1.80;;
15393;SDS011;7795;47.986;11.868;2023-11-19T04:27:12;2.33;;;2.13;;
15393;SDS011;7795;47.986;11.868;2023-11-19T04:29:40;2.00;;;1.90;;
15393;SDS011;7795;47.986;11.868;2023-11-19T04:32:06;1.80;;;1.70;;
15393;SDS011;7795;47.986;11.868;2023-11-19T04:34:32;1.97;;;1.87;;
15393;SDS011;7795;47.986;11.868;2023-11-19T04:36:58;2.13;;;2.03;;
15393;SDS011;7795;47.986;11.868;2023-11-19T04:39:27;2.30;;;2.10;;
15393;SDS011;7795;47.986;11.868;2023-11-19T04:41:53;2.20;;;2.10;;
15393;SDS011;7795;47.986;11.868;2023-11-19T04:44:18;2.60;;;2.40;;
15393;SDS011;7795;47.986;11.868;2023-11-19T04:46:46;2.47;;;2.37;;
15393;SDS011;7795;47.986;11.868;2023-11-19T04:49:12;2.47;;;2.27;;
15393;SDS011;7795;47.986;11.868;2023-11-19T04:51:39;2.00;;;1.90;;
15393;SDS011;7795;47.986;11.868;2023-11-19T04:54:05;2.83;;;1.67;;
15393;SDS011;7795;47.986;11.868;2023-11-19T04:56:33;1.27;;;1.00;;
15393;SDS011;7795;47.986;11.868;2023-11-19T04:58:59;0.60;;;0.60;;
15393;SDS011;7795;47.986;11.868;2023-11-19T05:01:25;0.70;;;0.70;;
15393;SDS011;7795;47.986;11.868;2023-11-19T05:03:52;0.87;;;0.70;;
15393;SDS011;7795;47.986;11.868;2023-11-19T05:06:17;0.40;;;0.40;;
15393;SDS011;7795;47.986;11.868;2023-11-19T05:08:43;0.50;;;0.50;;
15393;SDS011;7795;47.986;11.868;2023-11-19T05:11:09;0.97;;;0.63;;
15393;SDS011;7795;47.986;11.868;2023-11-19T05:13:42;1.00;;;0.70;;
15393;SDS011;7795;47.986;11.868;2023-11-19T05:16:10;0.60;;;0.60;;
15393;SDS011;7795;47.986;11.868;2023-11-19T05:18:39;0.50;;;0.50;;
15393;SDS011;7795;47.986;11.868;2023-11-19T05:21:06;0.60;;;0.60;;
15393;SDS011;7795;47.986;11.868;2023-11-19T05:23:32;0.43;;;0.43;;
15393;SDS011;7795;47.986;11.868;2023-11-19T05:25:58;1.13;;;0.43;;
15393;SDS011;7795;47.986;11.868;2023-11-19T05:28:25;0.63;;;0.40;;
15393;SDS011;7795;47.986;11.868;2023-11-19T05:30:51;0.63;;;0.63;;
15393;SDS011;7795;47.986;11.868;2023-11-19T05:33:16;0.67;;;0.67;;
15393;SDS011;7795;47.986;11.868;2023-11-19T05:35:42;1.07;;;0.60;;
15393;SDS011;7795;47.986;11.868;2023-11-19T05:38:09;0.70;;;0.70;;
15393;SDS011;7795;47.986;11.868;2023-11-19T05:40:35;0.80;;;0.53;;
15393;SDS011;7795;47.986;11.868;2023-11-19T05:43:01;0.60;;;0.60;;
15393;SDS011;7795;47.986;11.868;2023-11-19T05:45:27;0.40;;;0.40;;
15393;SDS011;7795;47.986;11.868;2023-11-19T05:47:52;1.27;;;0.43;;
15393;SDS011;7795;47.986;11.868;2023-11-19T05:50:18;0.40;;;0.40;;
15393;SDS011;7795;47.986;11.868;2023-11-19T05:52:44;0.40;;;0.40;;
15393;SDS011;7795;47.986;11.868;2023-11-19T05:55:11;0.77;;;0.67;;
15393;SDS011;7795;47.986;11.868;2023-11-19T05:57:38;0.43;;;0.43;;
15393;SDS011;7795;47.986;11.868;2023-11-19T06:00:05;0.50;;;0.50;;
15393;SDS011;7795;47.986;11.868;2023-11-19T06:02:32;0.40;;;0.40;;
15393;SDS011;7795;47.986;11.868;2023-11-19T06:04:58;0.50;;;0.50;;
15393;SDS011;7795;47.986;11.868;2023-11-19T06:07:24;0.87;;;0.60;;
15393;SDS011;7795;47.986;11.868;2023-11-19T06:09:50;0.40;;;0.40;;
15393;SDS011;7795;47.986;11.868;2023-11-19T06:12:17;0.50;;;0.50;;
15393;SDS011;7795;47.986;11.868;2023-11-19T06:14:43;0.30;;;0.30;;
15393;SDS011;7795;47.986;11.868;2023-11-19T06:17:08;0.50;;;0.50;;
15393;SDS011;7795;47.986;11.868;2023-11-19T06:19:36;0.60;;;0.60;;
15393;SDS011;7795;47.986;11.868;2023-11-19T06:22:02;0.40;;;0.40;;
15393;SDS011;7795;47.986;11.868;2023-11-19T06:24:27;0.60;;;0.60;;
15393;SDS011;7795;47.986;11.868;2023-11-19T06:26:53;0.53;;;0.53;;
15393;SDS011;7795;47.986;11.868;2023-11-19T06:29:20;0.40;;;0.40;;
15393;SDS011;7795;47.986;11.868;2023-11-19T06:31:46;0.60;;;0.53;;
15393;SDS011;7795;47.986;11.868;2023-11-19T06:34:14;0.60;;;0.53;;
15393;SDS011;7795;47.986;11.868;2023-11-19T06:36:39;0.60;;;0.60;;
15393;SDS011;7795;47.986;11.868;2023-11-19T06:39:05;0.70;;;0.60;;
15393;SDS011;7795;47.986;11.868;2023-11-19T06:41:31;0.50;;;0.50;;
15393;SDS011;7795;47.986;11.868;2023-11-19T06:43:57;0.40;;;0.40;;
15393;SDS011;7795;47.986;11.868;2023-11-19T06:46:24;0.40;;;0.40;;
15393;SDS011;7795;47.986;11.868;2023-11-19T06:48:50;0.50;;;0.50;;
15393;SDS011;7795;47.986;11.868;2023-11-19T06:51:16;0.40;;;0.40;;
15393;SDS011;7795;47.986;11.868;2023-11-19T06:53:42;0.40;;;0.40;;
15393;SDS011;7795;47.986;11.868;2023-11-19T06:56:17;0.50;;;0.50;;
15393;SDS011;7795;47.986;11.868;2023-11-19T06:58:43;0.37;;;0.37;;
15393;SDS011;7795;47.986;11.868;2023-11-19T07:01:09;0.33;;;0.33;;
15393;SDS011;7795;47.986;11.868;2023-11-19T07:03:37;0.50;;;0.50;;
15393;SDS011;7795;47.986;11.868;2023-11-19T07:06:03;0.40;;;0.40;;
15393;SDS011;7795;47.986;11.868;2023-11-19T07:08:30;0.30;;;0.30;;
15393;SDS011;7795;47.986;11.868;2023-11-19T07:10:56;0.43;;;0.43;;
15393;SDS011;7795;47.986;11.868;2023-11-19T07:13:21;0.60;;;0.60;;
15393;SDS011;7795;47.986;11.868;2023-11-19T07:15:47;0.70;;;0.70;;
15393;SDS011;7795;47.986;11.868;2023-11-19T07:18:13;0.50;;;0.50;;
15393;SDS011;7795;47.986;11.868;2023-11-19T07:20:40;0.50;;;0.50;;
15393;SDS011;7795;47.986;11.868;2023-11-19T07:23:06;0.30;;;0.30;;
15393;SDS011;7795;47.986;11.868;2023-11-19T07:25:32;0.57;;;0.57;;
15393;SDS011;7795;47.986;11.868;2023-11-19T07:27:57;0.40;;;0.40;;
15393;SDS011;7795;47.986;11.868;2023-11-19T07:30:23;0.50;;;0.50;;
15393;SDS011;7795;47.986;11.868;2023-11-19T07:32:49;0.70;;;0.57;;
15393;SDS011;7795;47.986;11.868;2023-11-19T07:35:14;0.50;;;0.50;;
15393;SDS011;7795;47.986;11.868;2023-11-19T07:37:45;0.87;;;0.40;;
15393;SDS011;7795;47.986;11.868;2023-11-19T07:40:13;0.40;;;0.40;;
15393;SDS011;7795;47.986;11.868;2023-11-19T07:42:39;0.37;;;0.37;;
15393;SDS011;7795;47.986;11.868;2023-11-19T07:45:05;0.40;;;0.40;;
15393;SDS011;7795;47.986;11.868;2023-11-19T07:47:32;0.60;;;0.47;;
15393;SDS011;7795;47.986;11.868;2023-11-19T07:49:58;0.60;;;0.60;;
15393;SDS011;7795;47.986;11.868;2023-11-19T07:52:23;0.40;;;0.40;;
15393;SDS011;7795;47.986;11.868;2023-11-19T07:54:50;0.73;;;0.60;;
15393;SDS011;7795;47.986;11.868;2023-11-19T07:57:16;0.57;;;0.40;;
15393;SDS011;7795;47.986;11.868;2023-11-19T07:59:42;0.43;;;0.40;;
15393;SDS011;7795;47.986;11.868;2023-11-19T08:02:07;0.37;;;0.37;;
15393;SDS011;7795;47.986;11.868;2023-11-19T08:04:34;0.60;;;0.60;;
15393;SDS011;7795;47.986;11.868;2023-11-19T08:06:59;0.40;;;0.40;;
15393;SDS011;7795;47.986;11.868;2023-11-19T08:09:25;0.60;;;0.60;;
15393;SDS011;7795;47.986;11.868;2023-11-19T08:11:53;0.50;;;0.50;;
15393;SDS011;7795;47.986;11.868;2023-11-19T08:14:21;0.43;;;0.43;;
15393;SDS011;7795;47.986;11.868;2023-11-19T08:16:47;0.63;;;0.63;;
15393;SDS011;7795;47.986;11.868;2023-11-19T08:19:13;0.63;;;0.63;;
15393;SDS011;7795;47.986;11.868;2023-11-19T08:21:38;0.40;;;0.40;;
15393;SDS011;7795;47.986;11.868;2023-11-19T08:24:04;0.60;;;0.40;;
15393;SDS011;7795;47.986;11.868;2023-11-19T08:26:30;1.33;;;0.70;;
15393;SDS011;7795;47.986;11.868;2023-11-19T08:28:57;0.40;;;0.40;;
15393;SDS011;7795;47.986;11.868;2023-11-19T08:31:24;0.80;;;0.60;;
15393;SDS011;7795;47.986;11.868;2023-11-19T08:33:50;1.27;;;1.07;;
15393;SDS011;7795;47.986;11.868;2023-11-19T08:36:16;2.00;;;1.13;;
15393;SDS011;7795;47.986;11.868;2023-11-19T08:38:42;1.67;;;1.10;;
15393;SDS011;7795;47.986;11.868;2023-11-19T08:41:08;1.30;;;0.90;;
15393;SDS011;7795;47.986;11.868;2023-11-19T08:43:33;1.10;;;1.00;;
15393;SDS011;7795;47.986;11.868;2023-11-19T08:46:00;1.30;;;0.93;;
15393;SDS011;7795;47.986;11.868;2023-11-19T08:48:26;1.20;;;0.90;;
15393;SDS011;7795;47.986;11.868;2023-11-19T08:50:52;0.77;;;0.77;;
15393;SDS011;7795;47.986;11.868;2023-11-19T08:53:18;0.90;;;0.63;;
15393;SDS011;7795;47.986;11.868;2023-11-19T08:55:43;0.40;;;0.40;;
15393;SDS011;7795;47.986;11.868;2023-11-19T08:58:09;0.53;;;0.53;;
15393;SDS011;7795;47.986;11.868;2023-11-19T09:00:35;1.13;;;0.90;;
15393;SDS011;7795;47.986;11.868;2023-11-19T09:03:02;0.60;;;0.60;;
15393;SDS011;7795;47.986;11.868;2023-11-19T09:05:28;0.97;;;0.77;;
15393;SDS011;7795;47.986;11.868;2023-11-19T09:07:53;0.80;;;0.80;;
15393;SDS011;7795;47.986;11.868;2023-11-19T09:10:19;0.60;;;0.60;;
15393;SDS011;7795;47.986;11.868;2023-11-19T09:12:45;0.50;;;0.50;;
15393;SDS011;7795;47.986;11.868;2023-11-19T09:15:11;0.43;;;0.43;;
15393;SDS011;7795;47.986;11.868;2023-11-19T09:17:36;0.40;;;0.40;;
15393;SDS011;7795;47.986;11.868;2023-11-19T09:20:04;0.90;;;0.57;;
15393;SDS011;7795;47.986;11.868;2023-11-19T09:22:31;0.60;;;0.60;;
15393;SDS011;7795;47.986;11.868;2023-11-19T09:24:56;0.47;;;0.47;;
15393;SDS011;7795;47.986;11.868;2023-11-19T09:27:24;0.60;;;0.60;;
15393;SDS011;7795;47.986;11.868;2023-11-19T09:29:51;0.60;;;0.60;;
15393;SDS011;7795;47.986;11.868;2023-11-19T09:32:22;0.50;;;0.50;;
15393;SDS011;7795;47.986;11.868;2023-11-19T09:34:48;0.40;;;0.40;;
15393;SDS011;7795;47.986;11.868;2023-11-19T09:37:15;0.60;;;0.60;;
15393;SDS011;7795;47.986;11.868;2023-11-19T09:39:41;0.60;;;0.60;;
15393;SDS011;7795;47.986;11.868;2023-11-19T09:42:11;0.63;;;0.63;;
15393;SDS011;7795;47.986;11.868;2023-11-19T09:44:37;0.60;;;0.60;;
15393;SDS011;7795;47.986;11.868;2023-11-19T09:47:04;0.40;;;0.40;;
15393;SDS011;7795;47.986;11.868;2023-11-19T09:49:32;0.50;;;0.50;;
15393;SDS011;7795;47.986;11.868;2023-11-19T09:51:58;0.50;;;0.50;;
15393;SDS011;7795;47.986;11.868;2023-11-19T09:54:25;0.40;;;0.40;;
15393;SDS011;7795;47.986;11.868;2023-11-19T09:56:51;1.13;;;0.63;;
15393;SDS011;7795;47.986;11.868;2023-11-19T09:59:17;1.30;;;0.90;;
15393;SDS011;7795;47.986;11.868;2023-11-19T10:01:44;0.60;;;0.60;;
15393;SDS011;7795;47.986;11.868;2023-11-19T10:04:11;0.60;;;0.60;;
15393;SDS011;7795;47.986;11.868;2023-11-19T10:06:40;0.57;;;0.50;;
15393;SDS011;7795;47.986;11.868;2023-11-19T10:09:07;0.80;;;0.50;;
15393;SDS011;7795;47.986;11.868;2023-11-19T10:11:34;0.50;;;0.50;;
15393;SDS011;7795;47.986;11.868;2023-11-19T10:14:00;1.13;;;1.00;;
15393;SDS011;7795;47.986;11.868;2023-11-19T10:16:28;1.00;;;0.73;;
15393;SDS011;7795;47.986;11.868;2023-11-19T10:18:55;0.70;;;0.50;;
15393;SDS011;7795;47.986;11.868;2023-11-19T10:21:21;0.77;;;0.60;;
15393;SDS011;7795;47.986;11.868;2023-11-19T10:23:47;1.30;;;0.73;;
15393;SDS011;7795;47.986;11.868;2023-11-19T10:26:14;0.80;;;0.80;;
15393;SDS011;7795;47.986;11.868;2023-11-19T10:28:42;0.47;;;0.47;;
15393;SDS011;7795;47.986;11.868;2023-11-19T10:31:11;1.23;;;0.80;;
15393;SDS011;7795;47.986;11.868;2023-11-19T10:33:38;1.10;;;1.00;;
15393;SDS011;7795;47.986;11.868;2023-11-19T10:36:04;0.70;;;0.60;;
15393;SDS011;7795;47.986;11.868;2023-11-19T10:38:30;0.50;;;0.50;;
15393;SDS011;7795;47.986;11.868;2023-11-19T10:40:56;0.30;;;0.30;;
15393;SDS011;7795;47.986;11.868;2023-11-19T10:43:22;1.63;;;0.60;;
15393;SDS011;7795;47.986;11.868;2023-11-19T10:45:49;0.60;;;0.60;;
15393;SDS011;7795;47.986;11.868;2023-11-19T10:48:15;0.50;;;0.50;;
15393;SDS011;7795;47.986;11.868;2023-11-19T10:50:41;0.57;;;0.50;;
15393;SDS011;7795;47.986;11.868;2023-11-19T10:53:08;1.03;;;0.50;;
15393;SDS011;7795;47.986;11.868;2023-11-19T10:55:36;0.60;;;0.57;;
15393;SDS011;7795;47.986;11.868;2023-11-19T10:58:06;0.50;;;0.50;;
15393;SDS011;7795;47.986;11.868;2023-11-19T11:00:37;0.40;;;0.40;;
15393;SDS011;7795;47.986;11.868;2023-11-19T11:03:10;1.60;;;0.60;;
15393;SDS011;7795;47.986;11.868;2023-11-19T11:05:40;0.40;;;0.40;;
15393;SDS011;7795;47.986;11.868;2023-11-19T11:08:07;0.80;;;0.60;;
15393;SDS011;7795;47.986;11.868;2023-11-19T11:10:34;0.40;;;0.40;;
15393;SDS011;7795;47.986;11.868;2023-11-19T11:13:04;0.87;;;0.50;;
15393;SDS011;7795;47.986;11.868;2023-11-19T11:15:31;0.50;;;0.50;;
15393;SDS011;7795;47.986;11.868;2023-11-19T11:17:59;0.40;;;0.40;;
15393;SDS011;7795;47.986;11.868;2023-11-19T11:20:31;0.40;;;0.40;;
15393;SDS011;7795;47.986;11.868;2023-11-19T11:23:04;0.50;;;0.40;;
15393;SDS011;7795;47.986;11.868;2023-11-19T11:25:43;0.33;;;0.30;;
15393;SDS011;7795;47.986;11.868;2023-11-19T11:28:26;0.40;;;0.40;;
15393;SDS011;7795;47.986;11.868;2023-11-19T11:31:08;0.43;;;0.40;;
15393;SDS011;7795;47.986;11.868;2023-11-19T11:33:42;0.73;;;0.43;;
15393;SDS011;7795;47.986;11.868;2023-11-19T11:36:25;0.77;;;0.40;;
15393;SDS011;7795;47.986;11.868;2023-11-19T11:38:52;0.40;;;0.40;;
15393;SDS011;7795;47.986;11.868;2023-11-19T11:41:23;0.30;;;0.30;;
15393;SDS011;7795;47.986;11.868;2023-11-19T11:43:51;0.30;;;0.30;;
15393;SDS011;7795;47.986;11.868;2023-11-19T11:49:24;0.40;;;0.30;;
15393;SDS011;7795;47.986;11.868;2023-11-19T11:51:59;0.30;;;0.30;;
15393;SDS011;7795;47.986;11.868;2023-11-19T11:54:26;0.40;;;0.40;;
15393;SDS011;7795;47.986;11.868;2023-11-19T11:57:09;0.40;;;0.40;;
15393;SDS011;7795;47.986;11.868;2023-11-19T11:59:36;0.37;;;0.30;;
15393;SDS011;7795;47.986;11.868;2023-11-19T12:02:11;0.30;;;0.30;;
15393;SDS011;7795;47.986;11.868;2023-11-19T12:04:39;0.30;;;0.30;;
15393;SDS011;7795;47.986;11.868;2023-11-19T12:07:07;0.70;;;0.70;;
15393;SDS011;7795;47.986;11.868;2023-11-19T12:09:38;0.43;;;0.43;;
15393;SDS011;7795;47.986;11.868;2023-11-19T12:12:17;0.83;;;0.37;;
15393;SDS011;7795;47.986;11.868;2023-11-19T12:14:59;0.50;;;0.50;;
15393;SDS011;7795;47.986;11.868;2023-11-19T12:20:22;0.37;;;0.37;;
15393;SDS011;7795;47.986;11.868;2023-11-19T12:22:50;0.30;;;0.30;;
15393;SDS011;7795;47.986;11.868;2023-11-19T12:25:17;0.30;;;0.30;;
15393;SDS011;7795;47.986;11.868;2023-11-19T12:27:45;0.37;;;0.30;;
15393;SDS011;7795;47.986;11.868;2023-11-19T12:30:12;0.30;;;0.30;;
15393;SDS011;7795;47.986;11.868;2023-11-19T12:32:42;0.30;;;0.30;;
15393;SDS011;7795;47.986;11.868;2023-11-19T12:35:09;0.50;;;0.40;;
15393;SDS011;7795;47.986;11.868;2023-11-19T12:37:39;0.50;;;0.40;;
15393;SDS011;7795;47.986;11.868;2023-11-19T12:40:11;0.37;;;0.37;;
15393;SDS011;7795;47.986;11.868;2023-11-19T12:42:44;0.30;;;0.30;;
15393;SDS011;7795;47.986;11.868;2023-11-19T12:45:10;0.30;;;0.30;;
15393;SDS011;7795;47.986;11.868;2023-11-19T12:47:36;0.47;;;0.40;;
15393;SDS011;7795;47.986;11.868;2023-11-19T12:50:02;0.60;;;0.60;;
15393;SDS011;7795;47.986;11.868;2023-11-19T12:52:29;0.97;;;0.50;;
15393;SDS011;7795;47.986;11.868;2023-11-19T12:54:55;0.50;;;0.50;;
15393;SDS011;7795;47.986;11.868;2023-11-19T12:57:34;0.40;;;0.40;;
15393;SDS011;7795;47.986;11.868;2023-11-19T13:00:01;0.50;;;0.50;;
15393;SDS011;7795;47.986;11.868;2023-11-19T13:05:22;0.50;;;0.50;;
15393;SDS011;7795;47.986;11.868;2023-11-19T13:07:49;0.50;;;0.50;;
15393;SDS011;7795;47.986;11.868;2023-11-19T13:10:14;0.83;;;0.50;;
15393;SDS011;7795;47.986;11.868;2023-11-19T13:12:42;0.67;;;0.40;;
15393;SDS011;7795;47.986;11.868;2023-11-19T13:15:21;0.60;;;0.60;;
15393;SDS011;7795;47.986;11.868;2023-11-19T13:17:48;0.57;;;0.57;;
15393;SDS011;7795;47.986;11.868;2023-11-19T13:20:14;0.33;;;0.33;;
15393;SDS011;7795;47.986;11.868;2023-11-19T13:22:53;0.90;;;0.40;;
15393;SDS011;7795;47.986;11.868;2023-11-19T13:25:19;0.70;;;0.47;;
15393;SDS011;7795;47.986;11.868;2023-11-19T13:27:46;1.23;;;0.60;;
15393;SDS011;7795;47.986;11.868;2023-11-19T13:30:13;0.97;;;0.87;;
15393;SDS011;7795;47.986;11.868;2023-11-19T13:32:39;1.03;;;0.93;;
15393;SDS011;7795;47.986;11.868;2023-11-19T13:35:05;1.47;;;0.70;;
15393;SDS011;7795;47.986;11.868;2023-11-19T13:37:33;0.57;;;0.50;;
15393;SDS011;7795;47.986;11.868;2023-11-19T13:39:59;0.60;;;0.60;;
15393;SDS011;7795;47.986;11.868;2023-11-19T13:42:25;1.33;;;0.60;;
15393;SDS011;7795;47.986;11.868;2023-11-19T13:44:52;0.83;;;0.70;;
15393;SDS011;7795;47.986;11.868;2023-11-19T13:47:18;0.83;;;0.53;;
15393;SDS011;7795;47.986;11.868;2023-11-19T13:49:44;0.50;;;0.50;;
15393;SDS011;7795;47.986;11.868;2023-11-19T13:52:10;1.40;;;0.50;;
15393;SDS011;7795;47.986;11.868;2023-11-19T13:54:36;1.00;;;0.60;;
15393;SDS011;7795;47.986;11.868;2023-11-19T13:57:03;0.70;;;0.50;;
15393;SDS011;7795;47.986;11.868;2023-11-19T13:59:29;0.40;;;0.40;;
15393;SDS011;7795;47.986;11.868;2023-11-19T14:01:57;1.77;;;0.60;;
15393;SDS011;7795;47.986;11.868;2023-11-19T14:04:23;0.53;;;0.53;;
15393;SDS011;7795;47.986;11.868;2023-11-19T14:06:49;0.50;;;0.50;;
15393;SDS011;7795;47.986;11.868;2023-11-19T14:09:15;0.60;;;0.60;;
15393;SDS011;7795;47.986;11.868;2023-11-19T14:11:40;0.90;;;0.50;;
15393;SDS011;7795;47.986;11.868;2023-11-19T14:14:07;0.60;;;0.43;;
15393;SDS011;7795;47.986;11.868;2023-11-19T14:16:33;0.50;;;0.50;;
15393;SDS011;7795;47.986;11.868;2023-11-19T14:19:00;1.37;;;0.70;;
15393;SDS011;7795;47.986;11.868;2023-11-19T14:21:26;0.70;;;0.50;;
15393;SDS011;7795;47.986;11.868;2023-11-19T14:23:52;0.50;;;0.50;;
15393;SDS011;7795;47.986;11.868;2023-11-19T14:26:18;0.60;;;0.60;;
15393;SDS011;7795;47.986;11.868;2023-11-19T14:28:43;0.63;;;0.63;;
15393;SDS011;7795;47.986;11.868;2023-11-19T14:31:09;1.07;;;0.97;;
15393;SDS011;7795;47.986;11.868;2023-11-19T14:33:35;0.43;;;0.40;;
15393;SDS011;7795;47.986;11.868;2023-11-19T14:36:04;0.80;;;0.73;;
15393;SDS011;7795;47.986;11.868;2023-11-19T14:38:32;0.67;;;0.67;;
15393;SDS011;7795;47.986;11.868;2023-11-19T14:40:58;0.30;;;0.30;;
15393;SDS011;7795;47.986;11.868;2023-11-19T14:43:24;1.60;;;0.60;;
15393;SDS011;7795;47.986;11.868;2023-11-19T14:45:50;0.93;;;0.30;;
15393;SDS011;7795;47.986;11.868;2023-11-19T14:48:16;0.53;;;0.50;;
15393;SDS011;7795;47.986;11.868;2023-11-19T14:50:42;0.80;;;0.70;;
15393;SDS011;7795;47.986;11.868;2023-11-19T14:53:11;0.50;;;0.50;;
15393;SDS011;7795;47.986;11.868;2023-11-19T14:55:36;0.50;;;0.50;;